Walnut Grove, MO

2:47 PM CDT on May 25, 2015 (GMT -0500)
Morrisville, MO | | Change Station
CLOSE
Current Station
Personal Weather Station
Location: Morrisville, MO
Elevation: 1043 ft
Nearby Weather Stations

Elev 1043 ft 37.51 °N, 93.42 °W | Updated 5 seconds ago

Partly Cloudy
Partly Cloudy
81.1 °F
Feels Like 85 °F
N
2.0
Wind Variable Wind from East
Gusts 3.1 mph

Today
High -- | Low -- °F
--% Chance of Precip.
Yesterday
High -- | Low -- °F
Precip. -- in
5:58 AM 8:24 PM
Waxing Crescent, 51% visible
Pressure 29.93 in
Visibility 10.0 miles
Clouds Scattered Clouds 3000 ft
Scattered Clouds 4100 ft
Heat Index 85 °F
Dew Point 70 °F
Humidity 70%
Rainfall 0.16 in
Snow Depth Not available.
UV 2.0 out of 12
Pollen 8.10 out of 12
Air Quality Not available.
Flu Activity Sporadic
METAR KSGF 251852Z 16010KT 10SM SCT030 SCT041 26/18 A2996 RMK AO2 SLP134 T02610183

More Conditions Fewer Conditions

Pressure 29.93 in
Visibility 10.0 miles
Clouds Scattered Clouds 3000 ft
Scattered Clouds 4100 ft
Heat Index 85 °F
Dew Point 70 °F
Humidity 70%
Rainfall 0.16 in
Snow Depth Not available.
UV 2.0 out of 12
Pollen 8.10 out of 12
Air Quality Not available.
Flu Activity Sporadic
METAR KSGF 251852Z 16010KT 10SM SCT030 SCT041 26/18 A2996 RMK AO2 SLP134 T02610183

More Conditions Fewer Conditions

10-Day Weather Forecast

Almanac

Astronomy

May. 25, 2015 Rise Set
Actual Time
Civil Twilight
Nautical Twilight
Astronomical Twilight
Moon
Length of Visible Light
Length of Day
Tomorrow will be .
, % of the Moon is Illuminated

Today's Extremes

State Highs State Lows

Community

WunderPhotos

Upload Photos

1,824,102 photos uploaded!

WunderBlogs® & News

Nearby

Air Quality

  Air Quality AQ Index Pollutant
Not available.

Snow Depth

Station Depth Elevation

Earthquake Activity

City Distance Mag. Time & Date
Minimum magnitude displayed is 2.5.

Coastal Water Temperatures

Place Temperature

Stations

Nearby Weather Stations

Station Location Temp. Windchill Dew Point Humidity Wind Precip. Elev Updated Type